Time,TemperatureF,DewpointF,PressureIn,WindDirection,WindDirectionDegrees,WindSpeedMPH,WindSpeedGustMPH,Humidity,HourlyPrecipIn,Conditions,Clouds,dailyrainin,SoftwareType,DateUTC
2013-03-13 00:09:00,26.9,12.0,25.93,WSW,253,3.0,7.0,54,0.00,,,0.00,weatherlink.com 1.10,2013-03-13 06:09:00,
2013-03-13 00:24:00,27.3,13.0,25.94,SW,222,5.0,7.0,54,0.00,,,0.00,weatherlink.com 1.10,2013-03-13 06:24:00,
2013-03-13 00:39:00,28.3,13.0,25.92,SW,218,9.0,11.0,53,0.00,,,0.00,weatherlink.com 1.10,2013-03-13 06:39:00,
2013-03-13 00:54:00,27.7,13.0,25.91,WSW,245,3.0,8.0,54,0.00,,,0.00,weatherlink.com 1.10,2013-03-13 06:54:00,
2013-03-13 01:09:00,27.3,13.0,25.91,WNW,297,0.0,4.0,56,0.00,,,0.00,weatherlink.com 1.10,2013-03-13 07:09:00,
2013-03-13 01:24:00,26.1,13.0,25.91,South,191,4.0,5.0,59,0.00,,,0.00,weatherlink.com 1.10,2013-03-13 07:24:00,
2013-03-13 01:39:00,25.2,13.0,25.91,SW,235,5.0,5.0,61,0.00,,,0.00,weatherlink.com 1.10,2013-03-13 07:39:00,
2013-03-13 01:54:00,25.4,14.0,25.90,WNW,284,2.0,6.0,63,0.00,,,0.00,weatherlink.com 1.10,2013-03-13 07:54:00,
2013-03-13 02:09:00,25.3,17.0,25.90,SW,220,6.0,7.0,71,0.00,,,0.00,weatherlink.com 1.10,2013-03-13 08:09:00,
2013-03-13 02:24:00,26.3,17.0,25.90,WSW,252,4.0,6.0,68,0.00,,,0.00,weatherlink.com 1.10,2013-03-13 08:24:00,
2013-03-13 02:39:00,26.0,17.0,25.90,SW,235,4.0,4.0,68,0.00,,,0.00,weatherlink.com 1.10,2013-03-13 08:39:00,
2013-03-13 02:54:00,26.3,18.0,25.89,WSW,253,3.0,6.0,70,0.00,,,0.00,weatherlink.com 1.10,2013-03-13 08:54:00,
2013-03-13 03:10:00,26.5,19.0,25.88,WSW,250,4.0,5.0,73,0.00,,,0.00,weatherlink.com 1.10,2013-03-13 09:10:00,
2013-03-13 03:25:00,25.4,19.0,25.88,West,262,4.0,7.0,75,0.00,,,0.00,weatherlink.com 1.10,2013-03-13 09:25:00,
2013-03-13 03:40:00,26.1,20.0,25.88,West,263,6.0,7.0,76,0.00,,,0.00,weatherlink.com 1.10,2013-03-13 09:40:00,
2013-03-13 03:55:00,26.7,20.0,25.88,WSW,246,8.0,9.0,77,0.00,,,0.00,weatherlink.com 1.10,2013-03-13 09:55:00,
2013-03-13 04:10:00,27.5,21.0,25.88,West,269,3.0,7.0,76,0.00,,,0.00,weatherlink.com 1.10,2013-03-13 10:10:00,
2013-03-13 04:25:00,27.7,22.0,25.88,West,271,3.0,9.0,79,0.00,,,0.00,weatherlink.com 1.10,2013-03-13 10:25:00,
2013-03-13 04:40:00,29.0,24.0,25.88,West,270,6.0,9.0,80,0.00,,,0.00,weatherlink.com 1.10,2013-03-13 10:40:00,
2013-03-13 04:55:00,28.8,23.0,25.88,West,269,4.0,10.0,80,0.00,,,0.00,weatherlink.com 1.10,2013-03-13 10:55:00,
2013-03-13 05:10:00,27.6,23.0,25.88,West,277,4.0,8.0,82,0.00,,,0.00,weatherlink.com 1.10,2013-03-13 11:10:00,
2013-03-13 05:25:00,26.7,22.0,25.88,West,269,4.0,7.0,83,0.00,,,0.00,weatherlink.com 1.10,2013-03-13 11:25:00,
2013-03-13 05:40:00,26.9,23.0,25.88,West,274,6.0,8.0,85,0.00,,,0.00,weatherlink.com 1.10,2013-03-13 11:40:00,
2013-03-13 05:55:00,27.2,23.0,25.88,West,276,6.0,8.0,85,0.00,,,0.00,weatherlink.com 1.10,2013-03-13 11:55:00,
2013-03-13 06:10:00,27.7,24.0,25.88,West,263,5.0,8.0,85,0.00,,,0.00,weatherlink.com 1.10,2013-03-13 12:10:00,
2013-03-13 06:25:00,27.5,23.0,25.88,West,276,3.0,7.0,84,0.00,,,0.00,weatherlink.com 1.10,2013-03-13 12:25:00,
2013-03-13 06:40:00,27.6,24.0,25.88,West,265,6.0,8.0,86,0.00,,,0.00,weatherlink.com 1.10,2013-03-13 12:40:00,
2013-03-13 06:55:00,27.3,23.0,25.88,West,262,5.0,9.0,85,0.00,,,0.00,weatherlink.com 1.10,2013-03-13 12:55:00,
2013-03-13 07:10:00,26.3,22.0,25.89,West,273,4.0,6.0,85,0.00,,,0.00,weatherlink.com 1.10,2013-03-13 13:10:00,
2013-03-13 07:25:00,24.5,21.0,25.89,West,269,5.0,6.0,86,0.00,,,0.00,weatherlink.com 1.10,2013-03-13 13:25:00,
2013-03-13 07:40:00,24.6,21.0,25.89,WNW,283,5.0,5.0,87,0.00,,,0.00,weatherlink.com 1.10,2013-03-13 13:40:00,
2013-03-13 07:55:00,25.9,22.0,25.89,WNW,284,3.0,7.0,86,0.00,,,0.00,weatherlink.com 1.10,2013-03-13 13:55:00,
2013-03-13 08:10:00,30.2,26.0,25.89,WNW,297,7.0,10.0,83,0.00,,,0.00,weatherlink.com 1.10,2013-03-13 14:10:00,
2013-03-13 08:25:00,34.1,28.0,25.89,WNW,293,6.0,11.0,77,0.00,,,0.00,weatherlink.com 1.10,2013-03-13 14:25:00,
2013-03-13 08:40:00,36.9,28.0,25.90,WNW,296,11.0,14.0,69,0.00,,,0.00,weatherlink.com 1.10,2013-03-13 14:40:00,
2013-03-13 08:55:00,39.8,29.0,25.90,NW,308,10.0,16.0,65,0.00,,,0.00,weatherlink.com 1.10,2013-03-13 14:55:00,
2013-03-13 09:10:00,43.5,29.0,25.90,WNW,302,8.0,17.0,58,0.00,,,0.00,weatherlink.com 1.10,2013-03-13 15:10:00,
2013-03-13 09:25:00,46.9,29.0,25.90,WNW,291,10.0,17.0,51,0.00,,,0.00,weatherlink.com 1.10,2013-03-13 15:25:00,
2013-03-13 09:40:00,48.8,29.0,25.90,NW,305,10.0,18.0,46,0.00,,,0.00,weatherlink.com 1.10,2013-03-13 15:40:00,
2013-03-13 09:55:00,49.5,28.0,25.90,NW,304,17.0,19.0,44,0.00,,,0.00,weatherlink.com 1.10,2013-03-13 15:55:00,
2013-03-13 10:11:00,50.7,28.0,25.91,WNW,294,15.0,19.0,42,0.00,,,0.00,weatherlink.com 1.10,2013-03-13 16:11:00,
2013-03-13 10:26:00,51.8,29.0,25.91,NW,321,7.0,17.0,41,0.00,,,0.00,weatherlink.com 1.10,2013-03-13 16:26:00,
2013-03-13 11:41:00,59.1,28.0,25.91,NW,311,5.0,12.0,30,0.00,,,0.00,weatherlink.com 1.10,2013-03-13 17:41:00,
2013-03-13 12:11:00,60.5,26.0,25.91,NW,321,4.0,10.0,27,0.00,,,0.00,weatherlink.com 1.10,2013-03-13 18:11:00,
2013-03-13 12:26:00,60.8,26.0,25.91,NNE,27,10.0,13.0,27,0.00,,,0.00,weatherlink.com 1.10,2013-03-13 18:26:00,
2013-03-13 12:41:00,61.3,26.0,25.91,NNW,336,12.0,18.0,26,0.00,,,0.00,weatherlink.com 1.10,2013-03-13 18:41:00,
2013-03-13 12:56:00,61.6,27.0,25.90,NNW,335,11.0,20.0,27,0.00,,,0.00,weatherlink.com 1.10,2013-03-13 18:56:00,
2013-03-13 13:11:00,62.2,28.0,25.90,NNW,343,5.0,13.0,27,0.00,,,0.00,weatherlink.com 1.10,2013-03-13 19:11:00,
2013-03-13 13:26:00,62.0,27.0,25.89,WNW,294,10.0,13.0,26,0.00,,,0.00,weatherlink.com 1.10,2013-03-13 19:26:00,
2013-03-13 13:56:00,63.7,26.0,25.87,WNW,291,9.0,14.0,24,0.00,,,0.00,weatherlink.com 1.10,2013-03-13 19:56:00,
2013-03-13 14:12:00,64.2,27.0,25.86,NNW,330,4.0,13.0,24,0.00,,,0.00,weatherlink.com 1.10,2013-03-13 20:12:00,
2013-03-13 14:26:00,63.9,25.0,25.86,WNW,300,9.0,14.0,23,0.00,,,0.00,weatherlink.com 1.10,2013-03-13 20:26:00,
2013-03-13 14:41:00,64.3,26.0,25.85,NW,319,11.0,15.0,23,0.00,,,0.00,weatherlink.com 1.10,2013-03-13 20:41:00,
2013-03-13 14:57:00,63.7,25.0,25.85,WNW,291,10.0,19.0,23,0.00,,,0.00,weatherlink.com 1.10,2013-03-13 20:57:00,
2013-03-13 15:27:00,63.7,25.0,25.85,WNW,302,13.0,22.0,23,0.00,,,0.00,weatherlink.com 1.10,2013-03-13 21:27:00,
2013-03-13 15:42:00,64.3,26.0,25.85,NW,308,9.0,20.0,23,0.00,,,0.00,weatherlink.com 1.10,2013-03-13 21:42:00,
2013-03-13 15:57:00,63.9,25.0,25.85,WNW,300,16.0,23.0,23,0.00,,,0.00,weatherlink.com 1.10,2013-03-13 21:57:00,
2013-03-13 16:12:00,63.7,26.0,25.85,NW,315,11.0,20.0,24,0.00,,,0.00,weatherlink.com 1.10,2013-03-13 22:12:00,
2013-03-13 16:27:00,63.5,25.0,25.85,WNW,301,13.0,23.0,23,0.00,,,0.00,weatherlink.com 1.10,2013-03-13 22:27:00,
2013-03-13 16:42:00,63.4,25.0,25.85,West,264,11.0,21.0,23,0.00,,,0.00,weatherlink.com 1.10,2013-03-13 22:42:00,
2013-03-13 16:57:00,63.2,25.0,25.85,NW,305,9.0,19.0,23,0.00,,,0.00,weatherlink.com 1.10,2013-03-13 22:57:00,
2013-03-13 17:27:00,62.8,25.0,25.84,WNW,297,9.0,17.0,24,0.00,,,0.00,weatherlink.com 1.10,2013-03-13 23:27:00,
2013-03-13 17:42:00,62.4,25.0,25.84,WNW,300,6.0,14.0,24,0.00,,,0.00,weatherlink.com 1.10,2013-03-13 23:42:00,
2013-03-13 17:57:00,61.8,25.0,25.85,WNW,294,6.0,12.0,25,0.00,,,0.00,weatherlink.com 1.10,2013-03-13 23:57:00,
2013-03-13 18:12:00,61.0,26.0,25.84,NW,305,3.0,8.0,26,0.00,,,0.00,weatherlink.com 1.10,2013-03-14 00:12:00,
2013-03-13 18:42:00,58.8,26.0,25.84,WNW,289,2.0,3.0,28,0.00,,,0.00,weatherlink.com 1.10,2013-03-14 00:42:00,
2013-03-13 18:57:00,57.2,25.0,25.84,WNW,297,3.0,3.0,29,0.00,,,0.00,weatherlink.com 1.10,2013-03-14 00:57:00,
2013-03-13 19:12:00,55.4,25.0,25.84,WSW,243,4.0,4.0,31,0.00,,,0.00,weatherlink.com 1.10,2013-03-14 01:12:00,
2013-03-13 19:27:00,53.3,25.0,25.84,West,274,2.0,5.0,33,0.00,,,0.00,weatherlink.com 1.10,2013-03-14 01:27:00,
2013-03-13 19:42:00,50.6,24.0,25.84,West,259,4.0,4.0,36,0.00,,,0.00,weatherlink.com 1.10,2013-03-14 01:42:00,
2013-03-13 19:57:00,49.8,24.0,25.84,West,266,2.0,3.0,37,0.00,,,0.00,weatherlink.com 1.10,2013-03-14 01:57:00,
2013-03-13 20:12:00,49.7,24.0,25.84,West,262,3.0,4.0,37,0.00,,,0.00,weatherlink.com 1.10,2013-03-14 02:12:00,
2013-03-13 20:27:00,48.1,25.0,25.84,West,271,6.0,8.0,40,0.00,,,0.00,weatherlink.com 1.10,2013-03-14 02:27:00,
2013-03-13 20:42:00,46.0,24.0,25.84,NW,305,9.0,9.0,43,0.00,,,0.00,weatherlink.com 1.10,2013-03-14 02:42:00,
2013-03-13 20:57:00,44.8,25.0,25.84,WNW,290,7.0,8.0,47,0.00,,,0.00,weatherlink.com 1.10,2013-03-14 02:57:00,
2013-03-13 21:12:00,43.9,26.0,25.84,WNW,297,7.0,11.0,49,0.00,,,0.00,weatherlink.com 1.10,2013-03-14 03:12:00,
2013-03-13 21:42:00,43.1,26.0,25.85,WNW,283,7.0,11.0,51,0.00,,,0.00,weatherlink.com 1.10,2013-03-14 03:42:00,
2013-03-13 21:57:00,43.7,27.0,25.86,WNW,291,6.0,8.0,52,0.00,,,0.00,weatherlink.com 1.10,2013-03-14 03:57:00,
2013-03-13 22:12:00,42.6,26.0,25.86,West,276,5.0,7.0,53,0.00,,,0.00,weatherlink.com 1.10,2013-03-14 04:12:00,
2013-03-13 22:27:00,40.9,26.0,25.86,NW,307,6.0,8.0,55,0.00,,,0.00,weatherlink.com 1.10,2013-03-14 04:27:00,
2013-03-13 22:42:00,41.1,27.0,25.86,WNW,299,9.0,9.0,58,0.00,,,0.00,weatherlink.com 1.10,2013-03-14 04:42:00,
2013-03-13 22:57:00,42.5,27.0,25.87,WNW,290,11.0,12.0,55,0.00,,,0.00,weatherlink.com 1.10,2013-03-14 04:57:00,
2013-03-13 23:12:00,45.1,28.0,25.87,WNW,293,7.0,13.0,51,0.00,,,0.00,weatherlink.com 1.10,2013-03-14 05:12:00,
2013-03-13 23:27:00,45.5,28.0,25.87,NW,310,8.0,15.0,51,0.00,,,0.00,weatherlink.com 1.10,2013-03-14 05:27:00,
2013-03-13 23:42:00,45.2,27.0,25.87,WNW,302,9.0,12.0,50,0.00,,,0.00,weatherlink.com 1.10,2013-03-14 05:42:00,
2013-03-13 23:57:00,44.3,27.0,25.88,NW,315,11.0,14.0,51,0.00,,,0.00,weatherlink.com 1.10,2013-03-14 05:57:00,